Time;durP1;ratioP1;P1;durP2;ratioP2;P2;SDS_P1;SDS_P2;PMS_P1;PMS_P2;Temp;Humidity;BMP_temperature;BMP_pressure;BME280_temperature;BME280_humidity;BME280_pressure;Samples;Min_cycle;Max_cycle;Signal;HPM_P1;HPM_P2
2022/08/30 00:02:28;;;;;;;2.60;2.17;;;24.70;42.20;;;;;;5037625;28;20436;-68
2022/08/30 00:05:00;;;;;;;2.57;2.37;;;24.70;42.20;;;;;;5007568;28;20959;-68
2022/08/30 00:07:29;;;;;;;4.40;2.17;;;24.80;42.20;;;;;;5003922;28;20432;-68
2022/08/30 00:09:59;;;;;;;2.80;2.20;;;24.80;42.20;;;;;;5009893;28;20428;-68
2022/08/30 00:12:28;;;;;;;3.27;2.23;;;24.80;42.30;;;;;;5009599;28;20850;-68
2022/08/30 00:14:57;;;;;;;2.13;1.90;;;24.70;42.30;;;;;;5003902;28;20801;-68
2022/08/30 00:17:25;;;;;;;3.23;2.40;;;24.80;42.40;;;;;;5022417;28;20460;-68
2022/08/30 00:19:54;;;;;;;3.20;2.47;;;24.70;42.20;;;;;;5009598;28;20514;-68
2022/08/30 00:22:23;;;;;;;3.60;2.20;;;24.70;42.30;;;;;;5012902;28;20428;-68
2022/08/30 00:24:51;;;;;;;1.97;1.67;;;24.70;42.20;;;;;;5013263;28;20440;-68
2022/08/30 00:27:21;;;;;;;2.10;1.90;;;24.70;42.10;;;;;;5035829;28;20457;-68
2022/08/30 00:29:50;;;;;;;3.27;2.30;;;24.70;42.10;;;;;;5012299;28;20938;-68
2022/08/30 00:32:20;;;;;;;3.10;2.30;;;24.70;42.10;;;;;;5013196;28;20490;-68
2022/08/30 00:34:48;;;;;;;2.70;2.23;;;24.70;42.10;;;;;;5012728;28;20422;-68
2022/08/30 00:37:17;;;;;;;3.47;2.30;;;24.70;42.20;;;;;;5012559;28;20494;-68
2022/08/30 00:39:46;;;;;;;3.17;2.10;;;24.70;42.20;;;;;;5021097;28;20579;-68
2022/08/30 00:42:16;;;;;;;2.67;1.93;;;24.70;42.30;;;;;;5013401;28;20436;-68
2022/08/30 00:44:46;;;;;;;2.70;2.20;;;24.70;42.30;;;;;;5018639;28;20819;-67
2022/08/30 00:47:14;;;;;;;4.50;2.30;;;24.70;42.40;;;;;;5012690;28;20467;-68
2022/08/30 00:49:47;;;;;;;3.83;2.73;;;24.70;42.40;;;;;;5030457;28;20482;-68
2022/08/30 00:52:18;;;;;;;2.80;2.20;;;24.70;42.30;;;;;;5011638;28;20744;-68
2022/08/30 00:54:47;;;;;;;3.83;2.50;;;24.70;42.20;;;;;;5012628;28;20420;-68
2022/08/30 00:57:16;;;;;;;6.23;2.10;;;24.70;42.30;;;;;;5017327;28;20631;-68
2022/08/30 00:59:49;;;;;;;3.20;2.10;;;24.70;42.30;;;;;;5014411;28;20453;-68
2022/08/30 01:02:19;;;;;;;2.50;2.20;;;24.70;42.40;;;;;;5017721;28;20450;-68
2022/08/30 01:04:50;;;;;;;3.20;2.50;;;24.70;42.40;;;;;;5024478;28;20444;-68
2022/08/30 01:07:18;;;;;;;3.47;2.20;;;24.70;42.30;;;;;;5012513;28;20498;-68
2022/08/30 01:09:47;;;;;;;3.10;2.37;;;24.70;42.40;;;;;;5030331;28;21082;-68
2022/08/30 01:12:15;;;;;;;3.10;1.90;;;24.70;42.40;;;;;;5012478;28;20799;-68
2022/08/30 01:14:47;;;;;;;2.83;2.07;;;24.70;42.40;;;;;;5011138;28;20452;-68
2022/08/30 01:17:16;;;;;;;2.37;2.10;;;24.70;42.40;;;;;;5011014;28;20458;-68
2022/08/30 01:19:53;;;;;;;2.80;2.23;;;24.70;42.40;;;;;;5030057;28;20918;-68
2022/08/30 01:22:28;;;;;;;3.37;2.37;;;24.70;42.40;;;;;;5012260;28;20436;-67
2022/08/30 01:25:00;;;;;;;3.40;2.10;;;24.70;42.40;;;;;;5035002;28;20444;-68
2022/08/30 01:27:30;;;;;;;2.53;2.03;;;24.70;42.30;;;;;;5029454;28;20491;-68
2022/08/30 01:29:59;;;;;;;6.03;2.40;;;24.70;42.40;;;;;;4994561;28;20967;-68
2022/08/30 01:32:29;;;;;;;3.50;2.47;;;24.70;42.30;;;;;;5028678;28;20447;-68
2022/08/30 01:34:57;;;;;;;7.03;2.73;;;24.70;42.20;;;;;;5009602;28;20440;-67
2022/08/30 01:37:30;;;;;;;2.97;2.30;;;24.70;42.20;;;;;;5023315;28;20654;-68
2022/08/30 01:40:00;;;;;;;4.60;2.57;;;24.70;42.20;;;;;;5011986;28;20467;-68
2022/08/30 01:42:28;;;;;;;5.23;3.27;;;24.70;42.20;;;;;;5012195;28;20546;-68
2022/08/30 01:45:16;;;;;;;3.23;2.53;;;24.70;42.10;;;;;;5025249;28;20484;-68
2022/08/30 01:47:45;;;;;;;2.17;1.97;;;24.70;42.10;;;;;;4954206;28;20989;-67
2022/08/30 01:50:14;;;;;;;2.50;2.20;;;24.70;42.10;;;;;;4950151;28;20452;-67
2022/08/30 01:52:42;;;;;;;2.57;1.90;;;24.70;42.10;;;;;;4938310;28;20515;-67
2022/08/30 01:55:12;;;;;;;3.47;2.43;;;24.70;42.10;;;;;;4957328;28;20431;-66
2022/08/30 01:57:40;;;;;;;4.70;2.63;;;24.70;42.10;;;;;;4957588;28;20446;-67
2022/08/30 02:00:11;;;;;;;3.97;2.23;;;24.70;42.20;;;;;;4962605;28;20482;-67
2022/08/30 02:02:40;;;;;;;3.37;2.30;;;24.60;42.20;;;;;;4948266;28;20890;-67
2022/08/30 02:05:08;;;;;;;2.50;2.10;;;24.60;42.30;;;;;;4955810;28;20444;-66
2022/08/30 02:07:37;;;;;;;4.10;2.97;;;24.60;42.20;;;;;;4989860;28;20877;-67
2022/08/30 02:10:06;;;;;;;2.90;2.40;;;24.60;42.10;;;;;;4955166;28;20435;-68
2022/08/30 02:12:36;;;;;;;3.80;2.20;;;24.60;42.40;;;;;;4970111;28;20467;-67
2022/08/30 02:15:05;;;;;;;3.73;2.67;;;24.60;42.20;;;;;;4973522;28;20522;-67
2022/08/30 02:17:33;;;;;;;2.90;2.20;;;24.60;43.50;;;;;;4936331;29;20487;-67
2022/08/30 02:20:02;;;;;;;2.90;2.20;;;24.60;42.30;;;;;;4950372;28;20494;-67
2022/08/30 02:22:30;;;;;;;4.17;2.20;;;24.60;42.30;;;;;;4998673;28;20439;-66
2022/08/30 02:24:59;;;;;;;2.63;2.43;;;24.60;42.40;;;;;;4952916;28;20471;-67
2022/08/30 02:27:28;;;;;;;3.20;2.60;;;24.60;42.30;;;;;;4952357;28;20519;-67
2022/08/30 02:29:58;;;;;;;4.50;2.50;;;24.60;42.20;;;;;;4948147;28;20483;-67
2022/08/30 02:32:26;;;;;;;2.97;2.40;;;24.60;42.30;;;;;;4954955;28;20436;-67
2022/08/30 02:34:54;;;;;;;4.13;2.50;;;24.60;42.40;;;;;;4957800;28;20442;-67
2022/08/30 02:37:23;;;;;;;2.60;2.37;;;24.60;42.40;;;;;;4945422;28;20942;-67
2022/08/30 02:39:51;;;;;;;2.63;2.43;;;24.50;42.40;;;;;;4952372;28;20512;-67
2022/08/30 02:42:20;;;;;;;2.77;2.57;;;24.60;42.40;;;;;;4956707;28;20439;-66
2022/08/30 02:44:48;;;;;;;2.37;2.10;;;24.60;42.40;;;;;;4972512;28;20454;-67
2022/08/30 02:47:18;;;;;;;3.43;2.60;;;24.50;42.20;;;;;;4967795;28;20486;-67
2022/08/30 02:49:46;;;;;;;3.80;2.13;;;24.60;42.40;;;;;;4955222;28;20966;-67
2022/08/30 02:52:14;;;;;;;3.20;2.90;;;24.60;42.50;;;;;;4957818;28;20452;-67
2022/08/30 02:54:43;;;;;;;2.50;2.30;;;24.50;42.40;;;;;;4983051;28;20467;-67
2022/08/30 02:57:12;;;;;;;2.53;2.20;;;24.50;42.30;;;;;;4971428;28;20427;-68
2022/08/30 02:59:47;;;;;;;3.20;2.90;;;24.50;42.20;;;;;;4976795;28;20664;-67
2022/08/30 03:02:18;;;;;;;2.60;2.40;;;24.50;42.40;;;;;;4955327;28;21058;-67
2022/08/30 03:04:46;;;;;;;2.70;1.97;;;24.50;42.40;;;;;;4948659;28;20472;-67
2022/08/30 03:07:15;;;;;;;3.10;2.17;;;24.50;42.40;;;;;;4965574;28;20828;-67
2022/08/30 03:09:44;;;;;;;4.20;2.37;;;24.50;42.40;;;;;;4961652;28;21031;-67
2022/08/30 03:12:12;;;;;;;2.90;2.43;;;24.50;42.40;;;;;;4980907;28;20578;-67
2022/08/30 03:14:41;;;;;;;3.30;2.30;;;24.50;42.50;;;;;;4962283;28;20479;-67
2022/08/30 03:17:10;;;;;;;3.13;2.57;;;24.50;42.50;;;;;;4985014;28;20942;-67
2022/08/30 03:19:45;;;;;;;3.10;2.53;;;24.50;42.50;;;;;;4954279;28;20471;-68
2022/08/30 03:22:13;;;;;;;3.00;2.17;;;24.50;42.60;;;;;;4947610;28;20451;-67
2022/08/30 03:24:42;;;;;;;3.43;3.07;;;24.50;42.50;;;;;;4956974;28;20475;-67
2022/08/30 03:27:10;;;;;;;4.83;2.60;;;24.50;42.60;;;;;;4973599;28;20514;-67
2022/08/30 03:29:39;;;;;;;2.63;2.30;;;24.50;42.70;;;;;;4956499;28;20487;-67
2022/08/30 03:32:07;;;;;;;3.00;2.53;;;24.50;42.50;;;;;;4956790;28;20451;-68
2022/08/30 03:34:35;;;;;;;3.10;2.20;;;24.50;42.50;;;;;;4961283;28;20470;-67
2022/08/30 03:37:05;;;;;;;3.50;2.70;;;24.50;42.60;;;;;;4953265;28;20513;-66
2022/08/30 03:39:34;;;;;;;2.53;2.10;;;24.50;42.40;;;;;;4991112;28;20486;-67
2022/08/30 03:42:03;;;;;;;2.43;2.23;;;24.50;42.50;;;;;;4983468;28;20435;-67
2022/08/30 03:44:32;;;;;;;3.87;2.97;;;24.50;42.60;;;;;;4948577;28;20483;-68
2022/08/30 03:47:00;;;;;;;4.60;3.20;;;24.50;42.60;;;;;;4967401;28;20822;-67
2022/08/30 03:49:29;;;;;;;3.13;2.30;;;24.40;42.40;;;;;;4995538;28;20466;-67
2022/08/30 03:51:57;;;;;;;5.00;2.97;;;24.50;42.60;;;;;;4959418;28;20524;-68
2022/08/30 03:54:27;;;;;;;2.67;2.43;;;24.50;42.60;;;;;;4947956;28;20486;-67
2022/08/30 03:56:56;;;;;;;3.73;2.63;;;24.40;42.50;;;;;;4955593;28;20446;-66
2022/08/30 03:59:24;;;;;;;3.47;2.40;;;24.40;42.60;;;;;;4956614;28;20479;-67
2022/08/30 04:01:53;;;;;;;3.00;2.60;;;24.40;42.60;;;;;;4962972;28;20444;-67
2022/08/30 04:04:21;;;;;;;3.80;2.70;;;24.40;42.50;;;;;;4974709;28;20483;-67
2022/08/30 04:06:50;;;;;;;4.40;2.70;;;24.40;42.50;;;;;;4961304;28;20452;-67
2022/08/30 04:09:19;;;;;;;3.60;2.43;;;24.40;42.60;;;;;;4958627;28;20467;-67
2022/08/30 04:11:49;;;;;;;3.50;2.57;;;24.40;42.60;;;;;;4963680;28;20922;-67
2022/08/30 04:14:18;;;;;;;2.37;2.17;;;24.40;42.60;;;;;;4948888;28;20506;-67
2022/08/30 04:16:46;;;;;;;4.17;2.77;;;24.40;42.70;;;;;;4961799;28;20454;-67
2022/08/30 04:19:15;;;;;;;4.30;2.37;;;24.40;43.90;;;;;;4959118;28;20495;-67
2022/08/30 04:21:47;;;;;;;2.67;2.43;;;24.40;42.60;;;;;;4945484;28;20456;-67
2022/08/30 04:24:15;;;;;;;2.27;2.00;;;24.40;42.60;;;;;;4958159;28;20482;-67
2022/08/30 04:26:44;;;;;;;3.27;2.60;;;24.40;42.60;;;;;;4957720;28;20506;-65
2022/08/30 04:29:15;;;;;;;4.50;3.00;;;24.40;42.70;;;;;;4958979;28;20482;-67
2022/08/30 04:31:44;;;;;;;2.23;2.03;;;24.40;42.70;;;;;;4972508;28;20461;-67
2022/08/30 04:34:14;;;;;;;3.00;2.70;;;24.40;42.70;;;;;;4971911;28;20482;-66
2022/08/30 04:36:42;;;;;;;4.70;2.50;;;24.40;42.60;;;;;;4973331;28;20461;-67
2022/08/30 04:39:15;;;;;;;4.20;2.80;;;24.30;42.60;;;;;;4960619;28;20459;-67
2022/08/30 04:41:44;;;;;;;2.60;2.27;;;24.30;42.60;;;;;;4959805;28;20489;-67
2022/08/30 04:44:14;;;;;;;2.37;2.03;;;24.40;42.70;;;;;;4977612;28;20479;-67
2022/08/30 04:46:47;;;;;;;2.70;2.50;;;24.30;42.60;;;;;;4991238;28;20837;-68
2022/08/30 04:49:15;;;;;;;3.23;2.20;;;24.30;42.70;;;;;;4959163;28;20494;-67
2022/08/30 04:51:44;;;;;;;4.20;2.03;;;24.30;42.70;;;;;;4969482;28;20446;-67
2022/08/30 04:54:12;;;;;;;4.13;2.60;;;24.30;42.70;;;;;;4950261;28;21009;-67
2022/08/30 04:56:41;;;;;;;2.90;2.70;;;24.30;42.80;;;;;;4974680;28;20731;-67
2022/08/30 04:59:09;;;;;;;3.60;3.07;;;24.30;42.70;;;;;;4964613;28;20474;-68
2022/08/30 05:01:39;;;;;;;3.30;2.30;;;24.30;42.70;;;;;;4977860;28;20461;-67
2022/08/30 05:04:13;;;;;;;4.43;2.60;;;24.30;42.70;;;;;;4970159;28;20480;-67
2022/08/30 05:06:42;;;;;;;4.60;2.20;;;24.30;42.70;;;;;;4946934;28;20443;-67
2022/08/30 05:09:11;;;;;;;2.70;2.17;;;24.30;42.70;;;;;;4958764;28;20483;-67
2022/08/30 05:11:39;;;;;;;4.13;2.70;;;24.30;42.80;;;;;;4967239;28;20965;-67
2022/08/30 05:14:07;;;;;;;3.67;1.90;;;24.30;42.70;;;;;;4964721;28;21085;-67
2022/08/30 05:16:36;;;;;;;2.23;2.03;;;24.30;42.70;;;;;;4986969;28;20443;-68
2022/08/30 05:19:06;;;;;;;2.70;2.17;;;24.30;42.70;;;;;;4955072;28;20474;-66
2022/08/30 05:21:35;;;;;;;2.83;2.30;;;24.30;42.70;;;;;;4970582;28;20541;-67
2022/08/30 05:24:04;;;;;;;3.63;1.90;;;24.30;42.80;;;;;;4977266;28;20475;-67
2022/08/30 05:26:33;;;;;;;2.47;2.27;;;24.30;42.90;;;;;;4987828;28;20943;-67
2022/08/30 05:29:02;;;;;;;2.53;2.17;;;24.30;42.80;;;;;;4950975;28;20484;-67
2022/08/30 05:31:33;;;;;;;4.03;2.47;;;24.30;42.80;;;;;;5000162;28;20455;-67
2022/08/30 05:34:03;;;;;;;2.37;2.17;;;24.30;42.80;;;;;;4983977;28;20488;-67
2022/08/30 05:36:36;;;;;;;2.73;2.47;;;24.30;42.90;;;;;;4950373;28;20921;-66
2022/08/30 05:39:05;;;;;;;3.63;2.13;;;24.20;42.70;;;;;;4954054;28;20482;-66
2022/08/30 05:41:37;;;;;;;4.03;2.77;;;24.20;42.70;;;;;;4963784;28;20447;-66
2022/08/30 05:44:08;;;;;;;3.87;2.93;;;24.20;42.80;;;;;;4955254;28;20479;-65
2022/08/30 05:46:38;;;;;;;3.43;2.73;;;24.30;42.90;;;;;;4960048;28;20443;-65
2022/08/30 05:49:08;;;;;;;3.57;2.03;;;24.20;42.90;;;;;;4953855;28;21019;-67
2022/08/30 05:51:38;;;;;;;2.47;2.27;;;24.20;42.80;;;;;;4954939;28;20451;-66
2022/08/30 05:54:11;;;;;;;4.00;2.17;;;24.20;42.90;;;;;;4941970;28;20498;-66
2022/08/30 05:56:41;;;;;;;4.07;2.43;;;24.20;42.90;;;;;;4981415;28;20435;-67
2022/08/30 05:59:09;;;;;;;3.30;2.30;;;24.20;43.00;;;;;;4955706;28;20463;-67
2022/08/30 06:01:40;;;;;;;3.73;2.97;;;24.20;43.10;;;;;;4978961;28;20918;-68
2022/08/30 06:04:11;;;;;;;2.50;1.80;;;24.20;43.10;;;;;;4950413;28;20479;-68
2022/08/30 06:06:42;;;;;;;2.50;2.13;;;24.20;42.90;;;;;;4945396;28;20448;-67
2022/08/30 06:09:13;;;;;;;2.53;2.23;;;24.20;42.90;;;;;;4962169;28;20585;-67
2022/08/30 06:11:42;;;;;;;4.00;2.33;;;24.20;43.00;;;;;;4974902;28;20449;-67
2022/08/30 06:14:10;;;;;;;5.10;3.00;;;24.20;43.00;;;;;;4965755;28;21021;-66
2022/08/30 06:16:40;;;;;;;4.60;2.90;;;24.20;43.00;;;;;;4949882;28;20457;-67
2022/08/30 06:19:09;;;;;;;3.20;2.00;;;24.20;43.00;;;;;;4955486;28;21013;-67
2022/08/30 06:21:41;;;;;;;3.73;2.60;;;24.10;42.90;;;;;;4951703;28;20451;-66
2022/08/30 06:24:11;;;;;;;3.33;3.03;;;24.20;43.10;;;;;;4951878;28;20480;-67
2022/08/30 06:26:42;;;;;;;4.30;2.53;;;24.10;42.90;;;;;;4978726;28;20969;-66
2022/08/30 06:29:12;;;;;;;3.30;2.67;;;24.10;43.00;;;;;;4952781;28;20478;-67
2022/08/30 06:31:41;;;;;;;2.40;2.20;;;24.10;43.10;;;;;;4949467;28;20454;-66
2022/08/30 06:34:10;;;;;;;3.97;2.40;;;24.10;42.90;;;;;;4970256;28;20488;-67
2022/08/30 06:36:38;;;;;;;4.90;2.70;;;24.10;42.90;;;;;;4952276;28;20514;-67
2022/08/30 06:39:08;;;;;;;3.63;2.60;;;24.10;43.00;;;;;;4961477;28;20493;-65
2022/08/30 06:41:38;;;;;;;3.00;2.50;;;24.10;42.90;;;;;;4965905;28;20882;-67
2022/08/30 06:44:17;;;;;;;2.63;2.00;;;24.10;43.00;;;;;;4939045;28;20482;-66
2022/08/30 06:46:46;;;;;;;2.43;2.00;;;24.10;43.10;;;;;;4948909;28;20456;-67
2022/08/30 06:49:16;;;;;;;3.13;2.47;;;24.10;42.90;;;;;;4956547;28;20487;-67
2022/08/30 06:51:44;;;;;;;3.00;2.40;;;24.10;42.90;;;;;;4945010;28;20483;-67
2022/08/30 06:54:14;;;;;;;3.23;2.50;;;24.10;42.90;;;;;;4954675;28;20484;-67
2022/08/30 06:56:45;;;;;;;3.37;2.50;;;24.10;43.00;;;;;;4956298;28;20445;-67
2022/08/30 06:59:26;;;;;;;4.60;2.50;;;24.10;42.90;;;;;;4948033;28;20503;-67
2022/08/30 07:01:56;;;;;;;3.40;2.50;;;24.10;42.90;;;;;;4947616;28;20839;-67
2022/08/30 07:04:25;;;;;;;4.23;3.30;;;24.10;43.00;;;;;;4948293;28;20494;-67
2022/08/30 07:06:53;;;;;;;2.80;2.50;;;24.10;43.00;;;;;;4946124;28;20458;-65
2022/08/30 07:09:23;;;;;;;3.10;2.67;;;24.10;42.90;;;;;;4971484;28;20526;-66
2022/08/30 07:11:52;;;;;;;3.47;2.20;;;24.10;42.90;;;;;;4974445;28;20459;-65
2022/08/30 07:14:22;;;;;;;3.00;2.23;;;24.10;43.00;;;;;;4951648;28;20487;-65
2022/08/30 07:16:50;;;;;;;3.07;2.70;;;24.10;43.10;;;;;;4980020;28;20612;-67
2022/08/30 07:19:19;;;;;;;7.80;2.40;;;24.10;43.00;;;;;;4971746;28;20886;-67
2022/08/30 07:21:49;;;;;;;4.27;2.97;;;24.10;42.90;;;;;;4939457;28;20439;-66
2022/08/30 07:24:18;;;;;;;9.00;4.27;;;24.10;42.90;;;;;;4996275;28;20456;-64
2022/08/30 07:26:50;;;;;;;5.60;4.03;;;24.20;42.80;;;;;;4974676;28;21009;-64
2022/08/30 07:29:19;;;;;;;9.57;3.87;;;24.20;42.10;;;;;;4946808;28;20578;-65
2022/08/30 07:31:48;;;;;;;5.17;3.80;;;24.20;42.20;;;;;;4972755;28;20529;-66
2022/08/30 07:34:17;;;;;;;7.60;3.73;;;24.10;42.20;;;;;;4966879;28;20471;-67
2022/08/30 07:36:47;;;;;;;4.90;3.63;;;24.10;42.20;;;;;;4948768;28;20501;-66
2022/08/30 07:39:15;;;;;;;4.20;2.97;;;24.10;42.30;;;;;;4996462;28;20451;-67
2022/08/30 07:41:49;;;;;;;6.03;3.00;;;24.10;42.40;;;;;;4957518;28;20439;-66
2022/08/30 07:44:18;;;;;;;5.03;3.60;;;24.10;42.50;;;;;;4956534;28;21037;-66
2022/08/30 07:46:50;;;;;;;5.63;3.40;;;24.10;42.50;;;;;;5022015;23;20547;-67
2022/08/30 07:49:19;;;;;;;4.90;3.33;;;24.10;42.50;;;;;;5001097;28;20477;-67
2022/08/30 07:51:47;;;;;;;3.60;2.60;;;24.10;42.60;;;;;;4982733;28;20483;-67
2022/08/30 07:54:16;;;;;;;4.90;3.30;;;24.10;42.60;;;;;;5016717;28;20483;-67
2022/08/30 07:56:44;;;;;;;3.87;2.83;;;24.10;42.60;;;;;;4965195;28;20461;-68
2022/08/30 07:59:14;;;;;;;5.17;3.00;;;24.10;42.60;;;;;;4978745;28;20490;-67
2022/08/30 08:01:42;;;;;;;4.33;2.97;;;24.10;42.70;;;;;;4951537;28;20427;-67
2022/08/30 08:04:11;;;;;;;3.83;3.13;;;24.10;42.80;;;;;;4950864;28;20482;-68
2022/08/30 08:06:40;;;;;;;4.80;2.80;;;24.00;42.60;;;;;;4946589;28;20863;-67
2022/08/30 08:09:09;;;;;;;5.27;2.73;;;24.00;42.60;;;;;;4979224;28;20477;-67
2022/08/30 08:11:38;;;;;;;3.60;2.90;;;24.00;42.60;;;;;;4996153;28;20434;-67
2022/08/30 08:14:07;;;;;;;4.03;2.93;;;24.00;42.60;;;;;;4986592;28;21054;-67
2022/08/30 08:16:38;;;;;;;7.07;3.33;;;24.00;42.60;;;;;;4988317;28;20549;-67
2022/08/30 08:19:07;;;;;;;5.13;2.93;;;24.00;42.60;;;;;;4972068;28;20453;-67
2022/08/30 08:21:37;;;;;;;3.83;2.80;;;24.00;42.70;;;;;;4957312;28;20446;-67
2022/08/30 08:24:06;;;;;;;3.47;2.70;;;24.00;42.70;;;;;;4960019;28;20594;-67
2022/08/30 08:26:35;;;;;;;4.00;2.87;;;24.00;42.80;;;;;;4984808;28;20443;-67
2022/08/30 08:29:05;;;;;;;6.40;2.80;;;24.00;42.80;;;;;;4977714;28;20481;-67
2022/08/30 08:31:33;;;;;;;4.00;3.20;;;24.00;44.00;;;;;;4956628;28;20462;-67
2022/08/30 08:34:04;;;;;;;6.07;3.30;;;24.00;42.90;;;;;;4961119;28;20474;-67
2022/08/30 08:36:34;;;;;;;2.80;2.50;;;24.00;42.80;;;;;;4967271;28;20543;-67
2022/08/30 08:39:03;;;;;;;3.00;2.70;;;24.00;42.80;;;;;;4967543;28;20478;-67
2022/08/30 08:41:41;;;;;;;3.93;2.67;;;24.00;42.80;;;;;;4954115;28;20433;-68
2022/08/30 08:44:17;;;;;;;4.17;3.07;;;24.00;44.10;;;;;;4962709;28;20845;-67
2022/08/30 08:46:54;;;;;;;4.90;2.80;;;24.00;44.00;;;;;;4976747;28;20466;-67
2022/08/30 08:49:25;;;;;;;5.27;2.67;;;24.00;42.90;;;;;;4970651;28;20458;-67
2022/08/30 08:54:48;;;;;;;5.97;3.47;;;24.00;42.70;;;;;;4970379;28;20474;-68
2022/08/30 08:57:17;;;;;;;3.90;2.80;;;24.00;42.70;;;;;;4947453;28;21004;-68
2022/08/30 08:59:53;;;;;;;4.47;3.00;;;24.00;42.70;;;;;;4954266;28;20471;-68
2022/08/30 09:02:25;;;;;;;3.27;2.80;;;24.00;42.80;;;;;;4963176;28;20530;-67
2022/08/30 09:04:59;;;;;;;4.80;3.60;;;24.00;42.90;;;;;;4980406;28;20959;-68
2022/08/30 09:07:32;;;;;;;3.00;2.60;;;24.00;42.90;;;;;;4982243;28;20435;-67
2022/08/30 09:10:01;;;;;;;3.80;2.27;;;24.00;42.80;;;;;;4987429;28;20942;-67
2022/08/30 09:12:30;;;;;;;3.87;2.57;;;24.00;42.90;;;;;;4976771;28;20429;-68
2022/08/30 09:15:03;;;;;;;3.43;2.60;;;24.00;42.90;;;;;;4985917;28;20450;-67
2022/08/30 09:17:50;;;;;;;4.50;2.50;;;24.00;42.90;;;;;;4938813;28;20435;-68
2022/08/30 09:20:31;;;;;;;4.03;2.97;;;24.00;42.90;;;;;;4960308;28;20496;-68
2022/08/30 09:23:11;;;;;;;4.60;2.50;;;24.00;42.90;;;;;;4984894;28;20474;-68
2022/08/30 09:25:51;;;;;;;4.00;3.07;;;24.00;42.90;;;;;;4970843;28;20435;-68
2022/08/30 09:28:23;;;;;;;3.57;2.63;;;24.00;42.80;;;;;;4975798;28;20814;-68
2022/08/30 09:31:19;;;;;;;3.90;2.50;;;24.00;42.80;;;;;;4954064;28;20454;-68
2022/08/30 09:34:15;;;;;;;4.30;2.70;;;24.00;42.80;;;;;;4974252;28;20825;-69
2022/08/30 09:37:03;;;;;;;2.63;2.03;;;24.00;42.90;;;;;;4963974;28;20459;-69
2022/08/30 09:39:38;;;;;;;4.40;3.13;;;24.00;42.80;;;;;;4976111;28;20462;-69
2022/08/30 09:42:14;;;;;;;2.93;2.63;;;24.00;42.80;;;;;;4954852;28;20497;-69
2022/08/30 09:44:42;;;;;;;2.83;2.53;;;24.00;42.80;;;;;;4968059;28;20482;-69
2022/08/30 09:47:21;;;;;;;3.63;2.93;;;24.00;42.90;;;;;;4963173;28;21005;-69
2022/08/30 09:50:04;;;;;;;3.33;2.63;;;24.00;43.00;;;;;;4937532;28;20466;-68
2022/08/30 09:52:45;;;;;;;3.37;2.90;;;24.00;42.80;;;;;;4963708;28;20518;-68
2022/08/30 09:55:40;;;;;;;3.80;2.40;;;24.00;42.80;;;;;;4978868;28;20509;-68
2022/08/30 09:58:17;;;;;;;5.37;2.80;;;24.00;42.80;;;;;;4953184;28;20463;-68
2022/08/30 10:00:52;;;;;;;3.07;2.77;;;24.00;42.70;;;;;;4968653;28;20446;-68
2022/08/30 10:03:31;;;;;;;2.50;2.30;;;24.00;42.70;;;;;;4952389;28;20458;-68
2022/08/30 10:06:15;;;;;;;3.40;2.20;;;24.00;42.70;;;;;;4948586;28;20465;-68
2022/08/30 10:08:54;;;;;;;5.10;2.70;;;24.00;42.80;;;;;;4985697;28;20470;-68
2022/08/30 10:11:28;;;;;;;2.63;2.33;;;24.00;42.80;;;;;;4971926;28;20459;-68
2022/08/30 10:14:26;;;;;;;3.30;2.53;;;24.00;42.80;;;;;;4966184;28;20481;-72
2022/08/30 10:17:03;;;;;;;4.60;2.90;;;24.00;42.70;;;;;;4987355;28;20562;-72
2022/08/30 10:19:54;;;;;;;2.40;2.17;;;24.00;42.70;;;;;;4969116;28;20465;-72
2022/08/30 10:22:30;;;;;;;3.70;2.80;;;24.00;42.70;;;;;;4979014;28;20443;-72
2022/08/30 10:25:06;;;;;;;3.77;2.20;;;24.00;42.80;;;;;;4960682;28;20453;-72
2022/08/30 10:27:40;;;;;;;2.70;2.50;;;24.00;42.70;;;;;;4976250;28;20449;-72
2022/08/30 10:30:12;;;;;;;2.63;2.43;;;24.10;42.90;;;;;;4951148;28;20538;-72
2022/08/30 10:33:05;;;;;;;2.80;2.50;;;24.00;42.60;;;;;;4962518;28;20624;-72
2022/08/30 10:35:38;;;;;;;5.97;3.30;;;24.00;42.70;;;;;;4983536;28;20457;-72
2022/08/30 10:38:12;;;;;;;2.83;2.47;;;24.10;42.50;;;;;;4969073;28;20438;-72
2022/08/30 10:43:44;;;;;;;4.27;2.70;;;24.10;42.50;;;;;;4968013;28;20578;-72
2022/08/30 10:46:26;;;;;;;2.40;1.97;;;24.10;42.60;;;;;;4967879;28;20462;-72
2022/08/30 10:48:56;;;;;;;3.50;2.93;;;24.10;42.60;;;;;;4985196;28;20822;-72
2022/08/30 10:51:31;;;;;;;3.47;2.80;;;24.10;42.60;;;;;;4965975;28;20461;-72
2022/08/30 10:54:09;;;;;;;4.23;2.60;;;24.10;42.50;;;;;;4983808;28;20482;-72
2022/08/30 10:56:42;;;;;;;2.47;2.20;;;24.10;42.60;;;;;;4960339;28;20438;-72
2022/08/30 10:59:11;;;;;;;2.87;2.20;;;24.10;42.50;;;;;;4951363;28;20474;-72
2022/08/30 11:02:06;;;;;;;4.53;2.50;;;24.10;42.70;;;;;;4965305;28;20470;-72
2022/08/30 11:04:53;;;;;;;2.80;2.40;;;24.10;42.60;;;;;;4969829;28;20466;-72
2022/08/30 11:07:32;;;;;;;3.10;2.80;;;24.10;42.40;;;;;;4975698;28;20423;-72
2022/08/30 11:10:23;;;;;;;3.10;2.40;;;24.10;42.40;;;;;;4959705;28;20458;-72
2022/08/30 11:13:00;;;;;;;3.30;2.40;;;24.10;42.50;;;;;;4959757;28;20514;-72
2022/08/30 11:15:34;;;;;;;1.73;1.63;;;24.10;42.50;;;;;;4958254;28;20448;-72
2022/08/30 11:18:10;;;;;;;5.17;3.67;;;24.10;42.50;;;;;;4982954;28;20470;-72
2022/08/30 11:20:43;;;;;;;4.63;2.23;;;24.10;42.50;;;;;;4966796;28;20764;-72
2022/08/30 11:23:33;;;;;;;3.87;2.60;;;24.10;42.40;;;;;;4967517;28;21024;-71
2022/08/30 11:26:04;;;;;;;3.50;2.30;;;24.10;42.40;;;;;;4951346;28;20451;-72
2022/08/30 11:29:08;;;;;;;4.03;2.80;;;24.10;42.40;;;;;;4950987;28;20779;-72
2022/08/30 11:31:41;;;;;;;4.37;2.83;;;24.00;42.40;;;;;;4950840;28;20462;-72
2022/08/30 11:34:12;;;;;;;3.10;2.30;;;24.10;42.50;;;;;;4974966;28;20474;-72
2022/08/30 11:37:04;;;;;;;2.40;2.17;;;24.10;42.40;;;;;;4964017;28;20901;-72
2022/08/30 11:39:56;;;;;;;3.77;2.30;;;24.10;42.50;;;;;;4958928;28;21052;-72
2022/08/30 11:42:41;;;;;;;2.43;2.20;;;24.10;42.40;;;;;;4970296;28;20431;-72
2022/08/30 11:48:41;;;;;;;4.33;2.07;;;24.10;42.40;;;;;;5115903;27;20560;-54
2022/08/30 11:52:09;;;;;;;3.90;2.60;;;24.10;42.40;;;;;;5072673;28;21000;-51
2022/08/30 11:55:41;;;;;;;2.00;1.80;;;24.10;42.30;;;;;;4972334;28;20476;-54
2022/08/30 11:58:32;;;;;;;3.60;2.57;;;24.10;42.40;;;;;;4965809;28;20454;-55
2022/08/30 12:01:33;;;;;;;2.23;2.03;;;24.10;42.70;;;;;;5004610;28;21108;-54
2022/08/30 12:04:37;;;;;;;2.80;1.97;;;24.10;42.30;;;;;;4983607;28;20928;-55
2022/08/30 12:07:07;;;;;;;2.80;2.40;;;24.10;42.30;;;;;;5020876;28;21052;-54
2022/08/30 12:10:05;;;;;;;4.20;2.53;;;24.10;42.30;;;;;;5025809;28;20490;-55
2022/08/30 12:12:56;;;;;;;2.20;1.90;;;24.10;42.40;;;;;;5038245;28;20810;-55
2022/08/30 12:15:42;;;;;;;2.63;2.40;;;24.10;42.30;;;;;;5022917;28;20495;-53
2022/08/30 12:18:28;;;;;;;3.37;2.27;;;24.10;42.40;;;;;;4991638;28;20469;-52
2022/08/30 12:21:10;;;;;;;2.80;2.20;;;24.10;42.40;;;;;;4998963;28;20442;-53
2022/08/30 12:23:46;;;;;;;2.37;2.10;;;24.10;42.40;;;;;;5005517;28;20992;-52
2022/08/30 12:26:19;;;;;;;2.70;2.50;;;24.10;42.40;;;;;;5029322;28;20961;-54
2022/08/30 12:28:50;;;;;;;3.17;2.53;;;24.10;42.40;;;;;;5002899;28;20477;-55
2022/08/30 12:31:21;;;;;;;2.20;2.00;;;24.10;42.30;;;;;;5022876;28;20433;-55
2022/08/30 12:33:53;;;;;;;2.90;2.30;;;24.10;42.40;;;;;;5022668;28;20830;-54
2022/08/30 12:36:38;;;;;;;3.00;2.37;;;24.10;42.30;;;;;;5026395;28;20503;-56
2022/08/30 12:39:13;;;;;;;3.03;2.70;;;24.10;42.40;;;;;;5021575;28;20469;-54
2022/08/30 12:41:43;;;;;;;2.87;2.30;;;24.20;42.50;;;;;;5007134;28;20453;-56
2022/08/30 12:44:15;;;;;;;2.40;2.20;;;24.10;42.30;;;;;;5019629;28;20480;-51
2022/08/30 12:46:48;;;;;;;2.33;2.13;;;24.20;42.40;;;;;;5022459;28;20469;-53
2022/08/30 12:49:19;;;;;;;4.53;2.00;;;24.20;42.50;;;;;;5014110;28;20473;-54
2022/08/30 12:51:49;;;;;;;2.93;2.37;;;24.20;42.50;;;;;;4998366;28;20448;-54
2022/08/30 12:54:21;;;;;;;2.73;1.90;;;24.20;42.50;;;;;;5023773;28;20477;-54
2022/08/30 12:57:02;;;;;;;3.07;2.30;;;24.20;42.30;;;;;;5021834;28;20856;-55
2022/08/30 12:59:53;;;;;;;2.13;1.93;;;24.20;42.30;;;;;;4989723;28;20461;-54
2022/08/30 13:02:41;;;;;;;2.70;2.20;;;24.20;42.30;;;;;;5004054;28;20492;-55
2022/08/30 13:05:30;;;;;;;2.80;1.93;;;24.20;42.30;;;;;;5014692;28;20469;-53
2022/08/30 13:08:30;;;;;;;2.60;2.07;;;24.20;42.40;;;;;;5007867;28;20501;-53
2022/08/30 13:11:02;;;;;;;2.33;2.10;;;24.20;42.40;;;;;;4988999;28;20496;-54
2022/08/30 13:13:39;;;;;;;4.07;2.33;;;24.20;42.30;;;;;;4983102;28;20481;-51
2022/08/30 13:16:24;;;;;;;3.47;2.07;;;24.20;42.30;;;;;;4991789;28;20437;-53
2022/08/30 13:18:55;;;;;;;3.33;2.17;;;24.30;42.40;;;;;;4991727;28;20973;-53
2022/08/30 13:21:29;;;;;;;3.43;2.50;;;24.30;42.40;;;;;;4984459;28;20446;-54
2022/08/30 13:24:02;;;;;;;2.30;1.93;;;24.30;42.40;;;;;;4991372;28;21002;-53
2022/08/30 13:26:34;;;;;;;3.97;2.30;;;24.20;42.30;;;;;;4993267;28;20430;-53
2022/08/30 13:29:06;;;;;;;2.33;1.90;;;24.30;42.50;;;;;;5006213;28;20482;-53